• Join FlightAware (Why Join?)
  • Login
  • US Flag 
02:42AM EDT


 

Airport Tracker/Info


-or-


 

Live Flight TrackerFlight Track Log ✈ TAM3445 ✈ 26-Aug-2013 ✈ SBBR / BSB - SBGL / GIG

Flight Track Log - Related Links

Times and Time Zones

All times are in EDT time to prevent confusion due to time zone crossing. See the TAM3445 flight status page for this flight to view local times or setup timezone preferences in your user account.

Time Position Orientation Groundspeed Altitude Reporting Facility
EDT Latitude Longitude Course Direction KTS MPH feet Rate Location/Type
08:04PM -21.3215 -44.2856 148° Southeast  Level Estimated
08:05PM -21.4001 -44.2312 147° Southeast  Level Estimated
08:06PM -21.4786 -44.1768 147° Southeast  Level Estimated
08:07PM -21.5572 -44.1223 147° Southeast  Level Estimated
08:08PM -21.6357 -44.0677 147° Southeast  Level Estimated
08:09PM -21.7142 -44.0131 147° Southeast  Level Estimated
08:10PM -21.7927 -43.9584 147° Southeast  Level Estimated
08:11PM -21.8711 -43.9037 147° Southeast  Level Estimated
08:12PM -21.9496 -43.8489 147° Southeast  Level Estimated
08:13PM -22.0280 -43.7940 147° Southeast  Level Estimated
08:14PM -22.1064 -43.7391 147° Southeast  Level Estimated
08:15PM -22.1848 -43.6841 147° Southeast  Level Estimated
08:16PM -22.2632 -43.6290 147° Southeast  Level Estimated
08:17PM -22.3415 -43.5739 147° Southeast  Level Estimated
08:18PM -22.4199 -43.5188 147° Southeast  Level Estimated
08:19PM -22.4982 -43.4635 147° Southeast  Level Estimated
08:20PM -22.5765 -43.4082 147° Southeast  Level Estimated
08:21PM -22.6548 -43.3529 147° Southeast  Level Estimated
08:22PM -22.7330 -43.2975 147° Southeast  Level Estimated
08:23PM -22.8089 -43.2436 147° Southeast  Level Estimated
08:24PM -22.8089 -43.2436 137° Southeast  Level Estimated
08:25PM -22.8089 -43.2436 137° Southeast  Level Estimated
08:26PM -22.8089 -43.2436 137° Southeast  Level Estimated
08:27PM -22.8089 -43.2436 137° Southeast  Level Estimated
08:28PM -22.8089 -43.2436 137° Southeast  Level Estimated
08:29PM -22.8089 -43.2436 137° Southeast  Level Estimated
08:30PM -22.8089 -43.2436 137° Southeast  Level Estimated
08:31PM -22.8089 -43.2436 137° Southeast  Level Estimated
08:32PM -22.8089 -43.2436 137° Southeast  Level Estimated
08:33PM -22.8089 -43.2436 137° Southeast  Level Estimated
08:34PM -22.8089 -43.2436 137° Southeast  Level Estimated
08:35PM -22.8089 -43.2436 137° Southeast  Level Estimated
08:36PM -22.8089 -43.2436 137° Southeast  Level Estimated
08:37PM -22.8089 -43.2436 137° Southeast  Level Estimated
08:38PM -22.8089 -43.2436 137° Southeast  Level Estimated
08:39PM -22.8089 -43.2436 137° Southeast  Level Estimated